sensor_id;sensor_type;location;lat;lon;timestamp;pressure;altitude;pressure_sealevel;temperature;humidity
70815;BME280;58428;49.478;10.986;2024-03-08T00:02:36;98624.91;;;2.08;100.00
70815;BME280;58428;49.478;10.986;2024-03-08T00:05:03;98619.84;;;2.06;100.00
70815;BME280;58428;49.478;10.986;2024-03-08T00:07:29;98620.09;;;2.05;100.00
70815;BME280;58428;49.478;10.986;2024-03-08T00:09:54;98614.50;;;2.06;100.00
70815;BME280;58428;49.478;10.986;2024-03-08T00:12:20;98609.16;;;2.01;100.00
70815;BME280;58428;49.478;10.986;2024-03-08T00:14:45;98607.06;;;2.03;100.00
70815;BME280;58428;49.478;10.986;2024-03-08T00:17:11;98604.63;;;1.97;100.00
70815;BME280;58428;49.478;10.986;2024-03-08T00:19:36;98611.03;;;1.96;100.00
70815;BME280;58428;49.478;10.986;2024-03-08T00:22:02;98604.09;;;1.90;100.00
70815;BME280;58428;49.478;10.986;2024-03-08T00:24:27;98607.03;;;1.88;100.00
70815;BME280;58428;49.478;10.986;2024-03-08T00:26:55;98606.78;;;1.90;100.00
70815;BME280;58428;49.478;10.986;2024-03-08T00:29:21;98604.34;;;1.83;100.00
70815;BME280;58428;49.478;10.986;2024-03-08T00:31:51;98608.63;;;1.80;100.00
70815;BME280;58428;49.478;10.986;2024-03-08T00:34:18;98606.22;;;1.78;100.00
70815;BME280;58428;49.478;10.986;2024-03-08T00:36:43;98604.34;;;1.79;100.00
70815;BME280;58428;49.478;10.986;2024-03-08T00:39:10;98597.97;;;1.75;100.00
70815;BME280;58428;49.478;10.986;2024-03-08T00:41:37;98593.94;;;1.72;100.00
70815;BME280;58428;49.478;10.986;2024-03-08T00:44:02;98591.53;;;1.76;100.00
70815;BME280;58428;49.478;10.986;2024-03-08T00:46:30;98591.81;;;1.69;100.00
70815;BME280;58428;49.478;10.986;2024-03-08T00:48:56;98582.72;;;1.70;100.00
70815;BME280;58428;49.478;10.986;2024-03-08T00:51:22;98581.69;;;1.71;100.00
70815;BME280;58428;49.478;10.986;2024-03-08T00:53:49;98585.13;;;1.72;100.00
70815;BME280;58428;49.478;10.986;2024-03-08T00:56:15;98580.34;;;1.69;100.00
70815;BME280;58428;49.478;10.986;2024-03-08T00:58:44;98583.28;;;1.67;100.00
70815;BME280;58428;49.478;10.986;2024-03-08T01:01:13;98583.53;;;1.66;100.00
70815;BME280;58428;49.478;10.986;2024-03-08T01:03:43;98576.88;;;1.63;100.00
70815;BME280;58428;49.478;10.986;2024-03-08T01:06:11;98580.34;;;1.64;100.00
70815;BME280;58428;49.478;10.986;2024-03-08T01:08:38;98569.69;;;1.59;100.00
70815;BME280;58428;49.478;10.986;2024-03-08T01:11:04;98569.41;;;1.60;100.00
70815;BME280;58428;49.478;10.986;2024-03-08T01:13:30;98564.34;;;1.59;100.00
70815;BME280;58428;49.478;10.986;2024-03-08T01:15:56;98563.53;;;1.58;100.00
70815;BME280;58428;49.478;10.986;2024-03-08T01:18:23;98561.94;;;1.57;100.00
70815;BME280;58428;49.478;10.986;2024-03-08T01:20:52;98556.34;;;1.59;100.00
70815;BME280;58428;49.478;10.986;2024-03-08T01:23:19;98548.06;;;1.55;100.00
70815;BME280;58428;49.478;10.986;2024-03-08T01:25:45;98553.13;;;1.52;100.00
70815;BME280;58428;49.478;10.986;2024-03-08T01:28:10;98550.97;;;1.49;100.00
70815;BME280;58428;49.478;10.986;2024-03-08T01:30:36;98550.19;;;1.48;100.00
70815;BME280;58428;49.478;10.986;2024-03-08T01:33:03;98547.53;;;1.48;100.00
70815;BME280;58428;49.478;10.986;2024-03-08T01:35:29;98545.41;;;1.46;100.00
70815;BME280;58428;49.478;10.986;2024-03-08T01:37:57;98541.66;;;1.46;100.00
70815;BME280;58428;49.478;10.986;2024-03-08T01:40:25;98543.28;;;1.47;100.00
70815;BME280;58428;49.478;10.986;2024-03-08T01:42:50;98540.88;;;1.46;100.00
70815;BME280;58428;49.478;10.986;2024-03-08T01:45:16;98529.94;;;1.47;100.00
70815;BME280;58428;49.478;10.986;2024-03-08T01:47:43;98532.88;;;1.46;100.00
70815;BME280;58428;49.478;10.986;2024-03-08T01:50:09;98531.25;;;1.45;100.00
70815;BME280;58428;49.478;10.986;2024-03-08T01:52:36;98527.78;;;1.45;100.00
70815;BME280;58428;49.478;10.986;2024-03-08T01:55:05;98527.78;;;1.45;100.00
70815;BME280;58428;49.478;10.986;2024-03-08T01:57:35;98522.19;;;1.41;100.00
70815;BME280;58428;49.478;10.986;2024-03-08T02:00:03;98526.97;;;1.39;100.00
70815;BME280;58428;49.478;10.986;2024-03-08T02:02:34;98516.88;;;1.36;100.00
70815;BME280;58428;49.478;10.986;2024-03-08T02:05:03;98517.91;;;1.35;100.00
70815;BME280;58428;49.478;10.986;2024-03-08T02:07:30;98518.47;;;1.32;100.00
70815;BME280;58428;49.478;10.986;2024-03-08T02:09:56;98512.06;;;1.28;100.00
70815;BME280;58428;49.478;10.986;2024-03-08T02:12:23;98512.06;;;1.28;100.00
70815;BME280;58428;49.478;10.986;2024-03-08T02:14:50;98506.72;;;1.28;100.00
70815;BME280;58428;49.478;10.986;2024-03-08T02:17:15;98505.94;;;1.28;100.00
70815;BME280;58428;49.478;10.986;2024-03-08T02:19:40;98505.91;;;1.23;100.00
70815;BME280;58428;49.478;10.986;2024-03-08T02:22:07;98505.38;;;1.26;100.00
70815;BME280;58428;49.478;10.986;2024-03-08T02:24:32;98506.72;;;1.28;100.00
70815;BME280;58428;49.478;10.986;2024-03-08T02:27:01;98500.34;;;1.24;100.00
70815;BME280;58428;49.478;10.986;2024-03-08T02:29:28;98495.53;;;1.21;100.00
70815;BME280;58428;49.478;10.986;2024-03-08T02:31:55;98492.84;;;1.21;100.00
70815;BME280;58428;49.478;10.986;2024-03-08T02:34:24;98489.38;;;1.16;100.00
70815;BME280;58428;49.478;10.986;2024-03-08T02:36:50;98483.50;;;1.14;100.00
70815;BME280;58428;49.478;10.986;2024-03-08T02:39:18;98485.63;;;1.12;100.00
70815;BME280;58428;49.478;10.986;2024-03-08T02:41:45;98475.00;;;1.12;100.00
70815;BME280;58428;49.478;10.986;2024-03-08T02:44:10;98475.00;;;1.12;100.00
70815;BME280;58428;49.478;10.986;2024-03-08T02:46:37;98480.06;;;1.09;100.00
70815;BME280;58428;49.478;10.986;2024-03-08T02:49:08;98482.97;;;1.07;100.00
70815;BME280;58428;49.478;10.986;2024-03-08T02:51:33;98478.44;;;1.08;100.00
70815;BME280;58428;49.478;10.986;2024-03-08T02:54:02;98478.72;;;1.01;100.00
70815;BME280;58428;49.478;10.986;2024-03-08T02:56:31;98473.66;;;1.00;100.00
70815;BME280;58428;49.478;10.986;2024-03-08T02:59:00;98475.78;;;0.98;100.00
70815;BME280;58428;49.478;10.986;2024-03-08T03:01:28;98470.69;;;0.96;100.00
70815;BME280;58428;49.478;10.986;2024-03-08T03:03:53;98473.09;;;0.98;100.00
70815;BME280;58428;49.478;10.986;2024-03-08T03:06:20;98467.25;;;0.96;100.00
70815;BME280;58428;49.478;10.986;2024-03-08T03:08:49;98470.44;;;0.98;100.00
70815;BME280;58428;49.478;10.986;2024-03-08T03:11:16;98464.59;;;0.96;100.00
70815;BME280;58428;49.478;10.986;2024-03-08T03:13:45;98473.63;;;0.95;100.00
70815;BME280;58428;49.478;10.986;2024-03-08T03:16:18;98473.09;;;0.93;100.00
70815;BME280;58428;49.478;10.986;2024-03-08T03:19:11;98460.31;;;0.90;100.00
70815;BME280;58428;49.478;10.986;2024-03-08T03:21:45;98468.03;;;0.91;100.00
70815;BME280;58428;49.478;10.986;2024-03-08T03:24:16;98467.50;;;0.89;100.00
70815;BME280;58428;49.478;10.986;2024-03-08T03:26:48;98453.91;;;0.86;100.00
70815;BME280;58428;49.478;10.986;2024-03-08T03:29:20;98457.13;;;0.88;100.00
70815;BME280;58428;49.478;10.986;2024-03-08T03:31:46;98460.81;;;0.87;100.00
70815;BME280;58428;49.478;10.986;2024-03-08T03:34:12;98461.34;;;0.89;100.00
70815;BME280;58428;49.478;10.986;2024-03-08T03:36:39;98457.38;;;0.86;100.00
70815;BME280;58428;49.478;10.986;2024-03-08T03:39:08;98455.25;;;0.83;100.00
70815;BME280;58428;49.478;10.986;2024-03-08T03:41:44;98451.75;;;0.83;100.00
70815;BME280;58428;49.478;10.986;2024-03-08T03:44:11;98453.88;;;0.81;100.00
70815;BME280;58428;49.478;10.986;2024-03-08T03:46:36;98445.09;;;0.80;100.00
70815;BME280;58428;49.478;10.986;2024-03-08T03:49:06;98452.84;;;0.82;100.00
70815;BME280;58428;49.478;10.986;2024-03-08T03:51:32;98452.06;;;0.81;100.00
70815;BME280;58428;49.478;10.986;2024-03-08T03:53:58;98448.31;;;0.82;100.00
70815;BME280;58428;49.478;10.986;2024-03-08T03:56:26;98445.91;;;0.81;100.00
70815;BME280;58428;49.478;10.986;2024-03-08T03:58:52;98438.19;;;0.79;100.00
70815;BME280;58428;49.478;10.986;2024-03-08T04:01:20;98443.00;;;0.77;100.00
70815;BME280;58428;49.478;10.986;2024-03-08T04:03:48;98439.75;;;0.75;100.00
70815;BME280;58428;49.478;10.986;2024-03-08T04:06:14;98441.63;;;0.75;100.00
70815;BME280;58428;49.478;10.986;2024-03-08T04:08:40;98445.09;;;0.75;100.00
70815;BME280;58428;49.478;10.986;2024-03-08T04:11:07;98444.53;;;0.73;100.00
70815;BME280;58428;49.478;10.986;2024-03-08T04:13:34;98443.75;;;0.73;100.00
70815;BME280;58428;49.478;10.986;2024-03-08T04:16:03;98442.97;;;0.73;100.00
70815;BME280;58428;49.478;10.986;2024-03-08T04:18:34;98448.78;;;0.70;100.00
70815;BME280;58428;49.478;10.986;2024-03-08T04:21:02;98441.09;;;0.68;100.00
70815;BME280;58428;49.478;10.986;2024-03-08T04:23:36;98440.81;;;0.70;100.00
70815;BME280;58428;49.478;10.986;2024-03-08T04:26:11;98426.44;;;0.71;100.00
70815;BME280;58428;49.478;10.986;2024-03-08T04:28:37;98432.06;;;0.74;100.00
70815;BME280;58428;49.478;10.986;2024-03-08T04:31:03;98425.69;;;0.80;100.00
70815;BME280;58428;49.478;10.986;2024-03-08T04:33:32;98420.06;;;0.76;100.00
70815;BME280;58428;49.478;10.986;2024-03-08T04:36:02;98414.22;;;0.74;100.00
70815;BME280;58428;49.478;10.986;2024-03-08T04:38:31;98424.88;;;0.74;100.00
70815;BME280;58428;49.478;10.986;2024-03-08T04:40:57;98412.88;;;0.77;100.00
70815;BME280;58428;49.478;10.986;2024-03-08T04:43:25;98414.75;;;0.76;100.00
70815;BME280;58428;49.478;10.986;2024-03-08T04:45:52;98418.22;;;0.72;100.00
70815;BME280;58428;49.478;10.986;2024-03-08T04:48:21;98416.59;;;0.71;100.00
70815;BME280;58428;49.478;10.986;2024-03-08T04:50:47;98415.00;;;0.70;100.00
70815;BME280;58428;49.478;10.986;2024-03-08T04:53:13;98405.69;;;0.73;100.00
70815;BME280;58428;49.478;10.986;2024-03-08T04:55:40;98410.22;;;0.72;100.00
70815;BME280;58428;49.478;10.986;2024-03-08T04:58:06;98413.69;;;0.73;100.00
70815;BME280;58428;49.478;10.986;2024-03-08T05:00:32;98420.88;;;0.72;100.00
70815;BME280;58428;49.478;10.986;2024-03-08T05:03:03;98413.94;;;0.71;100.00
70815;BME280;58428;49.478;10.986;2024-03-08T05:05:32;98408.06;;;0.69;100.00
70815;BME280;58428;49.478;10.986;2024-03-08T05:08:08;98407.78;;;0.66;100.00
70815;BME280;58428;49.478;10.986;2024-03-08T05:10:39;98404.34;;;0.60;100.00
70815;BME280;58428;49.478;10.986;2024-03-08T05:15:49;98405.66;;;0.58;100.00
70815;BME280;58428;49.478;10.986;2024-03-08T05:18:18;98404.06;;;0.62;100.00
70815;BME280;58428;49.478;10.986;2024-03-08T05:21:01;98397.16;;;0.66;100.00
70815;BME280;58428;49.478;10.986;2024-03-08T05:23:30;98401.41;;;0.62;100.00
70815;BME280;58428;49.478;10.986;2024-03-08T05:25:57;98395.28;;;0.56;100.00
70815;BME280;58428;49.478;10.986;2024-03-08T05:28:23;98393.16;;;0.58;100.00
70815;BME280;58428;49.478;10.986;2024-03-08T05:30:48;98388.88;;;0.57;100.00
70815;BME280;58428;49.478;10.986;2024-03-08T05:33:18;98392.09;;;0.59;100.00
70815;BME280;58428;49.478;10.986;2024-03-08T05:35:46;98384.38;;;0.63;100.00
70815;BME280;58428;49.478;10.986;2024-03-08T05:38:14;98393.16;;;0.63;100.00
70815;BME280;58428;49.478;10.986;2024-03-08T05:40:41;98380.38;;;0.60;100.00
70815;BME280;58428;49.478;10.986;2024-03-08T05:43:08;98388.91;;;0.62;100.00
70815;BME280;58428;49.478;10.986;2024-03-08T05:45:35;98384.38;;;0.63;100.00
70815;BME280;58428;49.478;10.986;2024-03-08T05:48:00;98387.03;;;0.63;100.00
70815;BME280;58428;49.478;10.986;2024-03-08T05:50:29;98384.91;;;0.65;100.00
70815;BME280;58428;49.478;10.986;2024-03-08T05:52:57;98384.13;;;0.64;100.00
70815;BME280;58428;49.478;10.986;2024-03-08T05:55:22;98385.19;;;0.68;100.00
70815;BME280;58428;49.478;10.986;2024-03-08T05:57:49;98380.38;;;0.65;100.00
70815;BME280;58428;49.478;10.986;2024-03-08T06:00:17;98379.59;;;0.65;100.00
70815;BME280;58428;49.478;10.986;2024-03-08T06:02:44;98388.13;;;0.67;100.00
70815;BME280;58428;49.478;10.986;2024-03-08T06:05:10;98383.56;;;0.67;100.00
70815;BME280;58428;49.478;10.986;2024-03-08T06:07:37;98385.97;;;0.69;100.00
70815;BME280;58428;49.478;10.986;2024-03-08T06:10:07;98381.72;;;0.68;100.00
70815;BME280;58428;49.478;10.986;2024-03-08T06:12:36;98380.41;;;0.70;100.00
70815;BME280;58428;49.478;10.986;2024-03-08T06:15:09;98381.44;;;0.69;100.00
70815;BME280;58428;49.478;10.986;2024-03-08T06:17:35;98375.31;;;0.73;100.00
70815;BME280;58428;49.478;10.986;2024-03-08T06:20:01;98380.13;;;0.76;100.00
70815;BME280;58428;49.478;10.986;2024-03-08T06:22:28;98379.34;;;0.81;100.00
70815;BME280;58428;49.478;10.986;2024-03-08T06:24:56;98384.16;;;0.84;100.00
70815;BME280;58428;49.478;10.986;2024-03-08T06:27:21;98368.69;;;0.86;100.00
70815;BME280;58428;49.478;10.986;2024-03-08T06:29:50;98368.69;;;0.91;100.00
70815;BME280;58428;49.478;10.986;2024-03-08T06:32:17;98367.63;;;0.97;100.00
70815;BME280;58428;49.478;10.986;2024-03-08T06:34:49;98370.31;;;1.07;100.00
70815;BME280;58428;49.478;10.986;2024-03-08T06:37:18;98374.03;;;1.10;100.00
70815;BME280;58428;49.478;10.986;2024-03-08T06:39:48;98378.31;;;1.16;100.00
70815;BME280;58428;49.478;10.986;2024-03-08T06:42:15;98374.31;;;1.19;100.00
70815;BME280;58428;49.478;10.986;2024-03-08T06:44:43;98365.75;;;1.22;100.00
70815;BME280;58428;49.478;10.986;2024-03-08T06:47:17;98374.56;;;1.27;100.00
70815;BME280;58428;49.478;10.986;2024-03-08T06:49:52;98363.34;;;1.35;100.00
70815;BME280;58428;49.478;10.986;2024-03-08T06:52:18;98365.47;;;1.33;100.00
70815;BME280;58428;49.478;10.986;2024-03-08T06:54:49;98372.13;;;1.41;100.00
70815;BME280;58428;49.478;10.986;2024-03-08T06:57:15;98370.28;;;1.46;100.00
70815;BME280;58428;49.478;10.986;2024-03-08T06:59:42;98365.47;;;1.48;100.00
70815;BME280;58428;49.478;10.986;2024-03-08T07:02:11;98363.34;;;1.55;100.00
70815;BME280;58428;49.478;10.986;2024-03-08T07:04:37;98366.53;;;1.57;100.00
70815;BME280;58428;49.478;10.986;2024-03-08T07:07:08;98369.97;;;1.62;100.00
70815;BME280;58428;49.478;10.986;2024-03-08T07:09:46;98360.66;;;1.65;100.00
70815;BME280;58428;49.478;10.986;2024-03-08T07:12:12;98360.09;;;1.73;100.00
70815;BME280;58428;49.478;10.986;2024-03-08T07:14:39;98354.19;;;1.81;100.00
70815;BME280;58428;49.478;10.986;2024-03-08T07:17:14;98354.16;;;1.85;100.00
70815;BME280;58428;49.478;10.986;2024-03-08T07:19:40;98357.63;;;1.96;100.00
70815;BME280;58428;49.478;10.986;2024-03-08T07:22:06;98351.72;;;2.04;100.00
70815;BME280;58428;49.478;10.986;2024-03-08T07:24:37;98351.41;;;2.10;100.00
70815;BME280;58428;49.478;10.986;2024-03-08T07:27:35;98353.50;;;2.23;100.00
70815;BME280;58428;49.478;10.986;2024-03-08T07:30:02;98348.63;;;2.30;100.00
70815;BME280;58428;49.478;10.986;2024-03-08T07:32:30;98346.47;;;2.37;100.00
70815;BME280;58428;49.478;10.986;2024-03-08T07:34:57;98342.97;;;2.46;100.00
70815;BME280;58428;49.478;10.986;2024-03-08T07:37:23;98341.28;;;2.55;100.00
70815;BME280;58428;49.478;10.986;2024-03-08T07:39:51;98344.97;;;2.64;100.00
70815;BME280;58428;49.478;10.986;2024-03-08T07:42:18;98334.22;;;2.74;100.00
70815;BME280;58428;49.478;10.986;2024-03-08T07:44:44;98331.75;;;2.82;100.00
70815;BME280;58428;49.478;10.986;2024-03-08T07:47:13;98328.28;;;2.87;100.00
70815;BME280;58428;49.478;10.986;2024-03-08T07:49:39;98334.03;;;2.98;100.00
70815;BME280;58428;49.478;10.986;2024-03-08T07:52:12;98327.59;;;3.04;100.00
70815;BME280;58428;49.478;10.986;2024-03-08T07:54:40;98323.28;;;3.08;100.00
70815;BME280;58428;49.478;10.986;2024-03-08T07:57:06;98321.63;;;3.12;100.00
70815;BME280;58428;49.478;10.986;2024-03-08T07:59:32;98322.38;;;3.18;100.00
70815;BME280;58428;49.478;10.986;2024-03-08T08:01:58;98324.72;;;3.24;100.00
70815;BME280;58428;49.478;10.986;2024-03-08T08:04:25;98317.19;;;3.31;100.00
70815;BME280;58428;49.478;10.986;2024-03-08T08:06:52;98310.19;;;3.35;100.00
70815;BME280;58428;49.478;10.986;2024-03-08T08:09:20;98308.75;;;3.42;100.00
70815;BME280;58428;49.478;10.986;2024-03-08T08:11:57;98303.63;;;3.51;100.00
70815;BME280;58428;49.478;10.986;2024-03-08T08:14:24;98304.28;;;3.61;100.00
70815;BME280;58428;49.478;10.986;2024-03-08T08:16:49;98298.03;;;3.70;100.00
70815;BME280;58428;49.478;10.986;2024-03-08T08:19:18;98295.28;;;3.75;100.00
70815;BME280;58428;49.478;10.986;2024-03-08T08:21:47;98289.34;;;3.83;100.00
70815;BME280;58428;49.478;10.986;2024-03-08T08:24:16;98286.66;;;3.83;100.00
70815;BME280;58428;49.478;10.986;2024-03-08T08:26:42;98291.16;;;3.88;100.00
70815;BME280;58428;49.478;10.986;2024-03-08T08:29:09;98280.09;;;3.94;100.00
70815;BME280;58428;49.478;10.986;2024-03-08T08:31:35;98274.97;;;3.98;100.00
70815;BME280;58428;49.478;10.986;2024-03-08T08:34:04;98269.19;;;4.09;100.00
70815;BME280;58428;49.478;10.986;2024-03-08T08:36:35;98276.31;;;4.18;100.00
70815;BME280;58428;49.478;10.986;2024-03-08T08:39:04;98266.59;;;4.22;100.00
70815;BME280;58428;49.478;10.986;2024-03-08T08:41:32;98266.47;;;4.32;100.00
70815;BME280;58428;49.478;10.986;2024-03-08T08:43:57;98266.31;;;4.42;100.00
70815;BME280;58428;49.478;10.986;2024-03-08T08:46:23;98257.63;;;4.50;100.00
70815;BME280;58428;49.478;10.986;2024-03-08T08:48:51;98256.75;;;4.54;100.00
70815;BME280;58428;49.478;10.986;2024-03-08T08:51:17;98251.72;;;4.66;100.00
70815;BME280;58428;49.478;10.986;2024-03-08T08:53:44;98251.28;;;4.77;100.00
70815;BME280;58428;49.478;10.986;2024-03-08T08:56:12;98242.06;;;4.83;100.00
70815;BME280;58428;49.478;10.986;2024-03-08T08:58:45;98238.63;;;4.96;100.00
70815;BME280;58428;49.478;10.986;2024-03-08T09:01:12;98235.50;;;5.08;100.00
70815;BME280;58428;49.478;10.986;2024-03-08T09:03:39;98228.56;;;5.20;100.00
70815;BME280;58428;49.478;10.986;2024-03-08T09:06:07;98227.06;;;5.27;100.00
70815;BME280;58428;49.478;10.986;2024-03-08T09:08:39;98229.00;;;5.40;100.00
70815;BME280;58428;49.478;10.986;2024-03-08T09:11:05;98220.41;;;5.51;100.00
70815;BME280;58428;49.478;10.986;2024-03-08T09:13:31;98220.25;;;5.75;100.00
70815;BME280;58428;49.478;10.986;2024-03-08T09:15:56;98221.94;;;5.84;100.00
70815;BME280;58428;49.478;10.986;2024-03-08T09:18:23;98213.09;;;5.97;100.00
70815;BME280;58428;49.478;10.986;2024-03-08T09:20:49;98216.63;;;6.06;100.00
70815;BME280;58428;49.478;10.986;2024-03-08T09:23:19;98211.84;;;6.16;100.00
70815;BME280;58428;49.478;10.986;2024-03-08T09:25:44;98200.56;;;6.27;100.00
70815;BME280;58428;49.478;10.986;2024-03-08T09:28:10;98196.38;;;6.35;100.00
70815;BME280;58428;49.478;10.986;2024-03-08T09:30:39;98192.34;;;6.46;100.00
70815;BME280;58428;49.478;10.986;2024-03-08T09:33:08;98193.41;;;6.58;100.00
70815;BME280;58428;49.478;10.986;2024-03-08T09:35:36;98193.78;;;6.73;100.00
70815;BME280;58428;49.478;10.986;2024-03-08T09:38:03;98181.22;;;6.82;100.00
70815;BME280;58428;49.478;10.986;2024-03-08T09:40:41;98176.50;;;6.88;100.00
70815;BME280;58428;49.478;10.986;2024-03-08T09:43:10;98180.50;;;6.98;100.00
70815;BME280;58428;49.478;10.986;2024-03-08T09:45:44;98173.28;;;7.07;100.00
70815;BME280;58428;49.478;10.986;2024-03-08T09:48:11;98178.72;;;7.16;100.00
70815;BME280;58428;49.478;10.986;2024-03-08T09:50:42;98171.00;;;7.23;100.00
70815;BME280;58428;49.478;10.986;2024-03-08T09:53:12;98177.06;;;7.36;100.00
70815;BME280;58428;49.478;10.986;2024-03-08T09:55:39;98170.44;;;7.42;100.00
70815;BME280;58428;49.478;10.986;2024-03-08T09:58:11;98173.63;;;7.44;100.00
70815;BME280;58428;49.478;10.986;2024-03-08T10:00:47;98166.03;;;7.55;100.00
70815;BME280;58428;49.478;10.986;2024-03-08T10:03:13;98168.00;;;7.63;100.00
70815;BME280;58428;49.478;10.986;2024-03-08T10:05:40;98163.22;;;7.60;100.00
70815;BME280;58428;49.478;10.986;2024-03-08T10:08:09;98152.16;;;7.69;100.00
70815;BME280;58428;49.478;10.986;2024-03-08T10:10:37;98158.19;;;7.67;100.00
70815;BME280;58428;49.478;10.986;2024-03-08T10:13:06;98154.84;;;7.69;100.00
70815;BME280;58428;49.478;10.986;2024-03-08T10:15:32;98147.25;;;7.80;100.00
70815;BME280;58428;49.478;10.986;2024-03-08T10:18:01;98143.81;;;7.96;100.00
70815;BME280;58428;49.478;10.986;2024-03-08T10:20:35;98141.13;;;7.96;100.00
70815;BME280;58428;49.478;10.986;2024-03-08T10:23:02;98135.56;;;8.01;100.00
70815;BME280;58428;49.478;10.986;2024-03-08T10:25:31;98137.31;;;8.06;100.00
70815;BME280;58428;49.478;10.986;2024-03-08T10:27:57;98129.91;;;8.19;100.00
70815;BME280;58428;49.478;10.986;2024-03-08T10:30:22;98127.38;;;8.23;100.00
70815;BME280;58428;49.478;10.986;2024-03-08T10:32:49;98127.53;;;8.35;100.00
70815;BME280;58428;49.478;10.986;2024-03-08T10:35:14;98119.75;;;8.42;100.00
70815;BME280;58428;49.478;10.986;2024-03-08T10:37:47;98113.72;;;8.53;100.00
70815;BME280;58428;49.478;10.986;2024-03-08T10:40:18;98112.59;;;8.62;100.00
70815;BME280;58428;49.478;10.986;2024-03-08T10:42:54;98107.00;;;8.76;100.00
70815;BME280;58428;49.478;10.986;2024-03-08T10:45:38;98100.47;;;8.85;100.00
70815;BME280;58428;49.478;10.986;2024-03-08T10:48:28;98113.63;;;8.95;100.00
70815;BME280;58428;49.478;10.986;2024-03-08T10:50:59;98102.78;;;9.03;100.00
70815;BME280;58428;49.478;10.986;2024-03-08T10:53:29;98109.44;;;9.06;100.00
70815;BME280;58428;49.478;10.986;2024-03-08T10:55:58;98097.69;;;9.02;100.00
70815;BME280;58428;49.478;10.986;2024-03-08T10:58:27;98094.06;;;9.06;100.00
70815;BME280;58428;49.478;10.986;2024-03-08T11:00:56;98092.47;;;9.05;100.00
70815;BME280;58428;49.478;10.986;2024-03-08T11:09:27;98082.69;;;9.21;100.00
70815;BME280;58428;49.478;10.986;2024-03-08T11:14:55;98064.66;;;9.42;100.00
70815;BME280;58428;49.478;10.986;2024-03-08T11:19:58;98056.47;;;9.58;100.00
70815;BME280;58428;49.478;10.986;2024-03-08T11:22:32;98050.22;;;9.66;100.00
70815;BME280;58428;49.478;10.986;2024-03-08T11:25:09;98049.03;;;9.76;100.00
70815;BME280;58428;49.478;10.986;2024-03-08T11:27:36;98048.81;;;9.81;100.00
70815;BME280;58428;49.478;10.986;2024-03-08T11:30:22;98034.00;;;9.87;100.00
70815;BME280;58428;49.478;10.986;2024-03-08T11:32:50;98036.78;;;9.98;100.00
70815;BME280;58428;49.478;10.986;2024-03-08T11:35:22;98024.91;;;10.11;100.00
70815;BME280;58428;49.478;10.986;2024-03-08T11:37:48;98023.91;;;10.16;100.00
70815;BME280;58428;49.478;10.986;2024-03-08T11:40:14;98017.53;;;10.20;100.00
70815;BME280;58428;49.478;10.986;2024-03-08T11:42:48;98013.69;;;10.21;100.00
70815;BME280;58428;49.478;10.986;2024-03-08T11:45:16;98019.81;;;10.30;100.00
70815;BME280;58428;49.478;10.986;2024-03-08T11:47:45;98014.63;;;10.37;100.00
70815;BME280;58428;49.478;10.986;2024-03-08T11:50:17;98008.34;;;10.45;100.00
70815;BME280;58428;49.478;10.986;2024-03-08T11:52:49;98000.81;;;10.50;100.00
70815;BME280;58428;49.478;10.986;2024-03-08T11:55:14;97998.69;;;10.56;100.00
70815;BME280;58428;49.478;10.986;2024-03-08T11:57:41;97989.13;;;10.70;100.00
70815;BME280;58428;49.478;10.986;2024-03-08T12:00:18;97980.69;;;10.83;100.00
70815;BME280;58428;49.478;10.986;2024-03-08T12:03:07;97979.44;;;10.93;100.00
70815;BME280;58428;49.478;10.986;2024-03-08T12:05:34;97975.97;;;10.92;100.00
70815;BME280;58428;49.478;10.986;2024-03-08T12:08:02;97967.50;;;10.94;100.00
70815;BME280;58428;49.478;10.986;2024-03-08T12:10:29;97959.72;;;10.92;100.00
70815;BME280;58428;49.478;10.986;2024-03-08T12:12:57;97964.00;;;10.93;100.00
70815;BME280;58428;49.478;10.986;2024-03-08T12:15:25;97961.97;;;11.02;100.00
70815;BME280;58428;49.478;10.986;2024-03-08T12:17:53;97961.28;;;11.05;100.00
70815;BME280;58428;49.478;10.986;2024-03-08T12:20:23;97955.97;;;11.08;100.00
70815;BME280;58428;49.478;10.986;2024-03-08T12:22:53;97951.13;;;11.14;100.00
70815;BME280;58428;49.478;10.986;2024-03-08T12:25:21;97953.03;;;11.25;100.00
70815;BME280;58428;49.478;10.986;2024-03-08T12:27:47;97957.09;;;11.31;100.00
70815;BME280;58428;49.478;10.986;2024-03-08T12:30:27;97960.81;;;11.38;100.00
70815;BME280;58428;49.478;10.986;2024-03-08T12:33:00;97952.91;;;11.34;98.47
70815;BME280;58428;49.478;10.986;2024-03-08T12:35:29;97950.66;;;11.36;98.45
70815;BME280;58428;49.478;10.986;2024-03-08T12:38:02;97937.09;;;11.47;98.53
70815;BME280;58428;49.478;10.986;2024-03-08T12:40:31;97939.59;;;11.52;98.13
70815;BME280;58428;49.478;10.986;2024-03-08T12:42:58;97932.94;;;11.50;92.45
70815;BME280;58428;49.478;10.986;2024-03-08T12:45:27;97936.19;;;11.55;93.89
70815;BME280;58428;49.478;10.986;2024-03-08T12:47:55;97927.72;;;11.57;93.05
70815;BME280;58428;49.478;10.986;2024-03-08T12:50:22;97926.59;;;11.58;91.56
70815;BME280;58428;49.478;10.986;2024-03-08T12:52:53;97915.50;;;11.63;93.44
70815;BME280;58428;49.478;10.986;2024-03-08T12:55:19;97921.03;;;11.66;91.31
70815;BME280;58428;49.478;10.986;2024-03-08T12:57:46;97912.88;;;11.66;91.21
70815;BME280;58428;49.478;10.986;2024-03-08T13:00:12;97901.06;;;11.59;89.88
70815;BME280;58428;49.478;10.986;2024-03-08T13:02:46;97898.41;;;11.74;92.81
70815;BME280;58428;49.478;10.986;2024-03-08T13:05:12;97899.13;;;11.86;92.22
70815;BME280;58428;49.478;10.986;2024-03-08T13:07:41;97899.00;;;11.95;87.81
70815;BME280;58428;49.478;10.986;2024-03-08T13:10:16;97893.75;;;12.02;89.54
70815;BME280;58428;49.478;10.986;2024-03-08T13:12:42;97883.78;;;12.06;89.08